createdAt,value
2019-05-26T00:11:09.960Z,86.80
2019-05-26T00:13:40.870Z,86.80
2019-05-26T00:16:11.718Z,86.80
2019-05-26T00:18:42.406Z,86.40
2019-05-26T00:21:13.334Z,86.30
2019-05-26T00:23:44.391Z,86.20
2019-05-26T00:26:15.294Z,86.00
2019-05-26T00:28:46.225Z,85.80
2019-05-26T00:31:17.055Z,85.70
2019-05-26T00:33:47.867Z,85.40
2019-05-26T00:36:18.830Z,85.10
2019-05-26T00:38:51.830Z,84.80
2019-05-26T00:41:22.774Z,84.60
2019-05-26T00:43:53.669Z,84.30
2019-05-26T00:46:24.489Z,84.10
2019-05-26T00:48:55.471Z,83.90
2019-05-26T00:51:26.378Z,83.70
2019-05-26T00:53:57.283Z,83.40
2019-05-26T00:56:28.117Z,83.40
2019-05-26T00:58:59.247Z,83.30
2019-05-26T01:01:30.140Z,83.20
2019-05-26T01:04:01.229Z,83.10
2019-05-26T01:06:51.162Z,83.00
2019-05-26T01:09:41.307Z,82.90
2019-05-26T01:12:12.283Z,82.60
2019-05-26T01:14:43.188Z,82.60
2019-05-26T01:17:16.275Z,82.40
2019-05-26T01:19:47.427Z,82.20
2019-05-26T01:22:18.659Z,82.20
2019-05-26T01:24:49.627Z,82.10
2019-05-26T01:27:20.563Z,81.80
2019-05-26T01:29:51.401Z,81.70
2019-05-26T01:32:22.312Z,81.60
2019-05-26T01:34:53.444Z,81.50
2019-05-26T01:37:24.309Z,81.40
2019-05-26T01:39:55.127Z,81.30
2019-05-26T01:42:26.108Z,81.00
2019-05-26T01:44:56.813Z,80.80
2019-05-26T01:47:27.856Z,80.80
2019-05-26T01:49:58.979Z,80.40
2019-05-26T01:52:30.096Z,80.20
2019-05-26T01:55:01.121Z,80.20
2019-05-26T01:57:32.594Z,80.20
2019-05-26T02:00:03.755Z,79.80
2019-05-26T02:02:34.645Z,79.50
2019-05-26T02:05:06.061Z,79.30
2019-05-26T02:07:37.076Z,78.80
2019-05-26T02:10:09.393Z,79.10
2019-05-26T02:12:40.415Z,79.10
2019-05-26T02:15:11.598Z,78.90
2019-05-26T02:17:42.786Z,78.50
2019-05-26T02:20:13.966Z,78.40
2019-05-26T02:22:45.103Z,78.40
2019-05-26T02:25:16.351Z,78.30
2019-05-26T02:28:07.524Z,78.20
2019-05-26T02:30:38.397Z,78.00
2019-05-26T02:33:09.149Z,77.20
2019-05-26T02:35:40.805Z,77.40
2019-05-26T02:38:11.810Z,77.00
2019-05-26T02:40:42.766Z,76.90
2019-05-26T02:43:13.788Z,76.90
2019-05-26T02:45:44.823Z,76.20
2019-05-26T02:48:15.646Z,76.40
2019-05-26T02:50:46.998Z,76.30
2019-05-26T02:53:17.993Z,76.10
2019-05-26T02:55:49.001Z,76.00
2019-05-26T02:58:19.864Z,76.00
2019-05-26T03:00:51.075Z,75.70
2019-05-26T03:03:22.027Z,75.60
2019-05-26T03:05:54.079Z,74.00
2019-05-26T03:08:27.000Z,75.20
2019-05-26T03:11:00.085Z,74.20
2019-05-26T03:13:32.721Z,74.30
2019-05-26T03:16:06.089Z,73.90
2019-05-26T03:18:38.221Z,73.50
2019-05-26T03:21:09.219Z,73.60
2019-05-26T03:23:42.535Z,73.80
2019-05-26T03:26:14.892Z,73.00
2019-05-26T03:28:45.655Z,73.30
2019-05-26T03:31:16.656Z,72.20
2019-05-26T03:33:47.806Z,71.80
2019-05-26T03:36:18.618Z,72.50
2019-05-26T03:38:49.518Z,72.20
2019-05-26T03:41:20.416Z,72.40
2019-05-26T03:43:51.353Z,72.20
2019-05-26T03:46:22.510Z,71.90
2019-05-26T03:48:53.332Z,72.60
2019-05-26T03:51:25.050Z,72.40
2019-05-26T03:53:56.171Z,71.00
2019-05-26T03:56:27.173Z,70.70
2019-05-26T03:58:58.470Z,71.00
2019-05-26T04:01:30.671Z,70.60
2019-05-26T04:04:01.558Z,71.00
2019-05-26T04:06:32.575Z,71.70
2019-05-26T04:09:03.661Z,71.60
2019-05-26T04:11:34.551Z,71.50
2019-05-26T04:14:05.532Z,71.30
2019-05-26T04:16:36.479Z,71.40
2019-05-26T04:19:07.450Z,71.40
2019-05-26T04:21:38.362Z,70.80
2019-05-26T04:24:09.339Z,69.80
2019-05-26T04:26:40.201Z,70.40
2019-05-26T04:29:11.113Z,70.50
2019-05-26T04:31:41.949Z,69.70
2019-05-26T04:34:12.940Z,68.90
2019-05-26T04:36:43.848Z,69.10
2019-05-26T04:39:14.860Z,70.00
2019-05-26T04:41:45.612Z,68.30
2019-05-26T04:44:16.397Z,68.60
2019-05-26T04:46:47.324Z,67.60
2019-05-26T04:49:18.405Z,66.70
2019-05-26T04:51:49.450Z,67.20
2019-05-26T04:54:20.171Z,67.40
2019-05-26T04:56:51.426Z,66.60
2019-05-26T04:59:22.120Z,67.00
2019-05-26T05:01:53.100Z,66.60
2019-05-26T05:04:24.153Z,66.00
2019-05-26T05:06:54.986Z,65.80
2019-05-26T05:09:25.947Z,64.30
2019-05-26T05:11:56.962Z,62.50
2019-05-26T05:14:28.008Z,64.30
2019-05-26T05:16:59.433Z,63.90
2019-05-26T05:19:30.339Z,62.90
2019-05-26T05:22:01.279Z,63.40
2019-05-26T05:24:32.079Z,64.30
2019-05-26T05:27:03.030Z,64.70
2019-05-26T05:29:33.990Z,65.50
2019-05-26T05:32:04.878Z,65.10
2019-05-26T05:34:35.732Z,64.40
2019-05-26T05:37:06.693Z,64.70
2019-05-26T05:39:37.303Z,65.20
2019-05-26T05:42:08.164Z,65.80
2019-05-26T05:44:39.090Z,65.80
2019-05-26T05:47:10.191Z,66.00
2019-05-26T05:49:41.038Z,64.10
2019-05-26T05:52:12.019Z,65.10
2019-05-26T05:54:43.010Z,65.40
2019-05-26T05:57:13.997Z,65.30
2019-05-26T05:59:44.883Z,64.00
2019-05-26T06:02:15.770Z,63.50
2019-05-26T06:04:46.551Z,63.80
2019-05-26T06:07:17.539Z,62.00
2019-05-26T06:09:48.429Z,62.00
2019-05-26T06:12:19.263Z,61.70
2019-05-26T06:14:50.041Z,61.50
2019-05-26T06:17:20.933Z,62.30
2019-05-26T06:19:51.779Z,62.50
2019-05-26T06:22:22.816Z,63.90
2019-05-26T06:24:53.537Z,62.70
2019-05-26T06:27:24.516Z,62.70
2019-05-26T06:29:58.997Z,61.20
2019-05-26T06:32:27.531Z,62.90
2019-05-26T06:34:58.637Z,63.10
2019-05-26T06:37:29.576Z,63.00
2019-05-26T06:40:00.346Z,63.10
2019-05-26T06:42:31.346Z,63.10
2019-05-26T06:45:02.222Z,63.70
2019-05-26T06:47:33.178Z,62.70
2019-05-26T06:50:04.592Z,62.80
2019-05-26T06:52:35.503Z,61.60
2019-05-26T06:55:07.536Z,62.30
2019-05-26T06:57:38.630Z,62.20
2019-05-26T07:00:11.139Z,61.20
2019-05-26T07:02:42.170Z,61.10
2019-05-26T07:05:13.172Z,59.00
2019-05-26T07:07:43.906Z,58.70
2019-05-26T07:10:15.273Z,60.10
2019-05-26T07:12:45.988Z,59.90
2019-05-26T07:15:17.253Z,60.50
2019-05-26T07:17:50.837Z,60.10
2019-05-26T07:20:22.036Z,60.00
2019-05-26T07:22:52.934Z,59.90
2019-05-26T07:25:23.908Z,60.40
2019-05-26T07:27:54.743Z,58.00
2019-05-26T07:30:25.718Z,57.40
2019-05-26T07:32:56.597Z,58.70
2019-05-26T07:35:27.442Z,58.70
2019-05-26T07:37:58.445Z,59.30
2019-05-26T07:40:29.543Z,59.30
2019-05-26T07:43:00.524Z,59.40
2019-05-26T07:45:31.315Z,59.30
2019-05-26T07:48:02.210Z,58.80
2019-05-26T07:50:33.121Z,58.40
2019-05-26T07:53:03.962Z,57.50
2019-05-26T07:55:34.911Z,59.20
2019-05-26T07:58:06.014Z,58.90
2019-05-26T08:00:36.803Z,59.20
2019-05-26T08:03:07.652Z,58.70
2019-05-26T08:05:38.545Z,57.90
2019-05-26T08:08:13.059Z,58.30
2019-05-26T08:10:41.656Z,58.80
2019-05-26T08:13:12.749Z,58.90
2019-05-26T08:15:43.850Z,59.20
2019-05-26T08:18:14.725Z,59.50
2019-05-26T08:20:45.685Z,59.80
2019-05-26T08:23:16.581Z,59.40
2019-05-26T08:25:49.300Z,59.10
2019-05-26T08:28:21.665Z,60.30
2019-05-26T08:30:52.711Z,59.00
2019-05-26T08:33:24.251Z,58.70
2019-05-26T08:35:55.193Z,58.00
2019-05-26T08:38:26.239Z,59.50
2019-05-26T08:40:57.330Z,59.80
2019-05-26T08:43:28.918Z,60.20
2019-05-26T08:45:59.852Z,60.80
2019-05-26T08:48:30.695Z,60.90
2019-05-26T08:51:01.594Z,61.10
2019-05-26T08:53:32.493Z,61.10
2019-05-26T08:56:03.201Z,61.50
2019-05-26T08:58:34.162Z,61.00
2019-05-26T09:01:05.046Z,61.30
2019-05-26T09:03:55.372Z,61.40
2019-05-26T09:06:26.197Z,61.40
2019-05-26T09:08:56.991Z,60.20
2019-05-26T09:11:27.847Z,60.80
2019-05-26T09:13:58.777Z,60.90
2019-05-26T09:16:29.775Z,61.10
2019-05-26T09:19:00.762Z,61.10
2019-05-26T09:21:31.469Z,61.60
2019-05-26T09:24:02.255Z,61.50
2019-05-26T09:26:33.112Z,61.60
2019-05-26T09:29:04.111Z,61.60
2019-05-26T09:31:35.130Z,61.60
2019-05-26T09:34:06.289Z,61.60
2019-05-26T09:36:37.285Z,61.60
2019-05-26T09:39:09.536Z,61.80
2019-05-26T09:41:40.496Z,62.20
2019-05-26T09:44:11.186Z,62.40
2019-05-26T09:46:42.035Z,62.30
2019-05-26T09:49:12.921Z,62.70
2019-05-26T09:51:43.794Z,62.80
2019-05-26T09:54:14.709Z,62.90
2019-05-26T09:56:45.537Z,63.10
2019-05-26T09:59:16.546Z,62.90
2019-05-26T10:01:47.395Z,63.40
2019-05-26T10:04:18.318Z,63.30
2019-05-26T10:06:49.178Z,63.20
2019-05-26T10:09:19.967Z,62.90
2019-05-26T10:11:50.754Z,62.70
2019-05-26T10:14:21.806Z,63.00
2019-05-26T10:16:52.873Z,63.20
2019-05-26T10:19:23.763Z,63.50
2019-05-26T10:21:54.665Z,63.60
2019-05-26T10:24:25.515Z,63.70
2019-05-26T10:26:56.328Z,63.80
2019-05-26T10:29:27.125Z,64.10
2019-05-26T10:31:58.067Z,64.10
2019-05-26T10:34:28.898Z,64.10
2019-05-26T10:36:59.880Z,64.40
2019-05-26T10:39:30.834Z,64.20
2019-05-26T10:42:01.650Z,64.10
2019-05-26T10:44:32.441Z,64.20
2019-05-26T10:47:03.218Z,64.40
2019-05-26T10:49:33.916Z,65.40
2019-05-26T10:52:04.781Z,64.60
2019-05-26T10:54:35.623Z,64.60
2019-05-26T10:57:06.385Z,64.50
2019-05-26T10:59:37.254Z,64.60
2019-05-26T11:02:08.500Z,64.20
2019-05-26T11:04:39.294Z,64.50
2019-05-26T11:07:10.097Z,64.20
2019-05-26T11:09:40.850Z,64.10
2019-05-26T11:12:11.659Z,64.50
2019-05-26T11:14:42.941Z,64.40
2019-05-26T11:17:13.604Z,65.20
2019-05-26T11:19:44.368Z,65.60
2019-05-26T11:22:15.181Z,66.00
2019-05-26T11:24:46.109Z,66.30
2019-05-26T11:27:17.160Z,66.60
2019-05-26T11:29:48.083Z,66.90
2019-05-26T11:32:19.079Z,67.30
2019-05-26T11:35:01.172Z,67.50
2019-05-26T11:37:21.981Z,67.60
2019-05-26T11:39:52.868Z,68.00
2019-05-26T11:42:23.750Z,68.30
2019-05-26T11:44:54.671Z,68.70
2019-05-26T11:47:25.528Z,68.80
2019-05-26T11:49:56.338Z,68.90
2019-05-26T11:52:27.028Z,68.90
2019-05-26T11:54:57.660Z,68.90
2019-05-26T11:57:28.641Z,68.70
2019-05-26T11:59:59.521Z,68.70
2019-05-26T12:02:30.258Z,68.80
2019-05-26T12:05:01.247Z,68.90
2019-05-26T12:07:31.988Z,68.90
2019-05-26T12:10:02.750Z,69.30
2019-05-26T12:12:33.618Z,69.40
2019-05-26T12:15:04.531Z,69.40
2019-05-26T12:17:35.515Z,69.50
2019-05-26T12:20:07.770Z,69.50
2019-05-26T12:22:38.564Z,69.50
2019-05-26T12:25:10.128Z,69.60
2019-05-26T12:27:41.116Z,69.70
2019-05-26T12:30:13.149Z,69.90
2019-05-26T12:32:44.281Z,69.90
2019-05-26T12:35:15.453Z,70.00
2019-05-26T12:37:48.319Z,70.10
2019-05-26T12:40:18.998Z,70.10
2019-05-26T12:42:49.587Z,70.30
2019-05-26T12:45:20.924Z,70.70
2019-05-26T12:47:51.763Z,70.70
2019-05-26T12:50:22.599Z,70.70
2019-05-26T12:52:53.573Z,70.90
2019-05-26T12:55:24.333Z,70.90
2019-05-26T12:57:55.266Z,71.10
2019-05-26T13:00:26.350Z,71.10
2019-05-26T13:02:57.159Z,71.20
2019-05-26T13:05:28.066Z,71.30
2019-05-26T13:07:58.767Z,71.40
2019-05-26T13:10:29.593Z,71.60
2019-05-26T13:13:00.484Z,71.70
2019-05-26T13:15:31.352Z,71.80
2019-05-26T13:18:02.331Z,71.90
2019-05-26T13:20:33.045Z,72.00
2019-05-26T13:23:04.090Z,72.20
2019-05-26T13:25:35.474Z,72.20
2019-05-26T13:28:06.606Z,72.30
2019-05-26T13:30:38.887Z,72.40
2019-05-26T13:33:09.828Z,72.30
2019-05-26T13:35:40.669Z,72.50
2019-05-26T13:38:11.562Z,72.90
2019-05-26T13:40:42.465Z,72.70
2019-05-26T13:43:13.288Z,73.10
2019-05-26T13:45:44.211Z,73.10
2019-05-26T13:48:14.992Z,73.20
2019-05-26T13:50:45.890Z,73.60
2019-05-26T13:53:16.704Z,73.60
2019-05-26T13:55:47.654Z,73.80
2019-05-26T13:58:18.516Z,73.90
2019-05-26T14:00:49.692Z,73.80
2019-05-26T14:03:23.986Z,73.80
2019-05-26T14:05:52.955Z,73.80
2019-05-26T14:08:23.981Z,73.90
2019-05-26T14:10:55.106Z,74.20
2019-05-26T14:13:26.048Z,74.50
2019-05-26T14:15:58.351Z,74.40
2019-05-26T14:18:30.772Z,74.50
2019-05-26T14:21:01.649Z,74.80
2019-05-26T14:23:32.717Z,74.80
2019-05-26T14:26:03.641Z,75.10
2019-05-26T14:28:34.544Z,75.50
2019-05-26T14:31:05.509Z,75.60
2019-05-26T14:33:36.453Z,76.20
2019-05-26T14:36:07.474Z,75.70
2019-05-26T14:38:43.085Z,75.90
2019-05-26T14:41:10.416Z,76.30
2019-05-26T14:43:41.374Z,76.70
2019-05-26T14:46:12.283Z,77.00
2019-05-26T14:48:43.463Z,77.30
2019-05-26T14:51:14.199Z,77.30
2019-05-26T14:53:45.004Z,77.40
2019-05-26T14:56:15.835Z,77.40
2019-05-26T14:58:46.678Z,77.30
2019-05-26T15:01:17.608Z,77.50
2019-05-26T15:03:48.649Z,77.30
2019-05-26T15:06:19.603Z,77.70
2019-05-26T15:08:50.561Z,77.30
2019-05-26T15:11:21.438Z,77.30
2019-05-26T15:13:52.385Z,77.60
2019-05-26T15:16:23.128Z,77.80
2019-05-26T15:18:53.879Z,77.70
2019-05-26T15:21:24.786Z,78.40
2019-05-26T15:23:55.714Z,78.00
2019-05-26T15:26:26.556Z,78.20
2019-05-26T15:28:57.456Z,78.20
2019-05-26T15:31:28.317Z,77.90
2019-05-26T15:33:59.295Z,77.80
2019-05-26T15:36:30.088Z,77.90
2019-05-26T15:39:01.165Z,78.20
2019-05-26T15:41:32.112Z,78.20
2019-05-26T15:44:03.030Z,78.50
2019-05-26T15:46:33.853Z,78.10
2019-05-26T15:49:04.724Z,78.20
2019-05-26T15:51:35.441Z,78.30
2019-05-26T15:54:06.269Z,78.20
2019-05-26T15:56:37.095Z,78.50
2019-05-26T15:59:07.927Z,78.70
2019-05-26T16:01:38.742Z,78.60
2019-05-26T16:04:09.719Z,78.50
2019-05-26T16:06:40.587Z,78.70
2019-05-26T16:09:11.530Z,78.90
2019-05-26T16:11:43.690Z,78.60
2019-05-26T16:14:14.636Z,78.80
2019-05-26T16:16:45.564Z,78.60
2019-05-26T16:19:16.224Z,79.20
2019-05-26T16:21:46.926Z,79.30
2019-05-26T16:24:18.024Z,79.90
2019-05-26T16:26:48.961Z,79.70
2019-05-26T16:29:19.806Z,80.60
2019-05-26T16:31:50.692Z,80.10
2019-05-26T16:34:21.653Z,79.90
2019-05-26T16:36:52.247Z,80.40
2019-05-26T16:39:36.131Z,80.60
2019-05-26T16:41:55.155Z,80.30
2019-05-26T16:44:26.031Z,80.30
2019-05-26T16:46:57.171Z,80.70
2019-05-26T16:49:28.138Z,81.00
2019-05-26T16:51:58.914Z,81.00
2019-05-26T16:54:29.963Z,81.10
2019-05-26T16:57:00.909Z,81.10
2019-05-26T16:59:32.006Z,81.30
2019-05-26T17:02:02.830Z,81.40
2019-05-26T17:04:33.954Z,81.50
2019-05-26T17:07:04.813Z,81.50
2019-05-26T17:09:35.630Z,82.40
2019-05-26T17:12:06.976Z,81.60
2019-05-26T17:14:37.628Z,81.60
2019-05-26T17:17:14.698Z,81.60
2019-05-26T17:19:40.800Z,81.40
2019-05-26T17:22:11.600Z,81.60
2019-05-26T17:24:42.393Z,81.80
2019-05-26T17:27:13.202Z,81.90
2019-05-26T17:29:44.036Z,81.60
2019-05-26T17:32:14.914Z,81.50
2019-05-26T17:34:45.852Z,81.40
2019-05-26T17:37:16.638Z,81.30
2019-05-26T17:39:47.550Z,81.40
2019-05-26T17:42:18.334Z,81.80
2019-05-26T17:44:49.101Z,81.70
2019-05-26T17:47:29.803Z,81.70
2019-05-26T17:49:52.069Z,82.10
2019-05-26T17:52:23.129Z,82.10
2019-05-26T17:54:53.934Z,81.70
2019-05-26T17:57:25.060Z,81.90
2019-05-26T17:59:55.819Z,82.00
2019-05-26T18:02:26.756Z,81.70
2019-05-26T18:04:57.698Z,81.70
2019-05-26T18:07:28.385Z,81.30
2019-05-26T18:09:59.205Z,81.30
2019-05-26T18:12:30.101Z,81.20
2019-05-26T18:15:00.825Z,81.40
2019-05-26T18:17:45.905Z,81.20
2019-05-26T18:20:04.062Z,81.20
2019-05-26T18:22:34.863Z,81.40
2019-05-26T18:25:06.738Z,81.70
2019-05-26T18:27:37.695Z,81.60
2019-05-26T18:30:09.726Z,81.60
2019-05-26T18:32:40.518Z,81.50
2019-05-26T18:35:12.049Z,81.40
2019-05-26T18:37:42.878Z,81.50
2019-05-26T18:40:14.296Z,82.00
2019-05-26T18:42:45.145Z,81.80
2019-05-26T18:45:16.440Z,81.80
2019-05-26T18:48:01.971Z,82.00
2019-05-26T18:50:19.542Z,81.90
2019-05-26T18:52:50.395Z,81.90
2019-05-26T18:55:21.084Z,81.80
2019-05-26T18:57:52.070Z,81.70
2019-05-26T19:00:23.088Z,81.80
2019-05-26T19:02:53.958Z,81.90
2019-05-26T19:05:34.519Z,82.10
2019-05-26T19:07:57.385Z,82.00
2019-05-26T19:10:28.583Z,81.90
2019-05-26T19:12:59.499Z,82.30
2019-05-26T19:15:30.366Z,82.10
2019-05-26T19:18:01.344Z,82.10
2019-05-26T19:20:32.183Z,82.20
2019-05-26T19:23:03.139Z,82.90
2019-05-26T19:25:33.913Z,82.40
2019-05-26T19:28:04.832Z,82.80
2019-05-26T19:30:35.626Z,82.90
2019-05-26T19:33:06.655Z,82.70
2019-05-26T19:35:37.196Z,82.90
2019-05-26T19:38:08.185Z,83.20
2019-05-26T19:40:39.053Z,84.40
2019-05-26T19:43:09.986Z,84.20
2019-05-26T19:45:40.836Z,83.50
2019-05-26T19:48:11.643Z,84.00
2019-05-26T19:50:42.335Z,84.20
2019-05-26T19:53:13.040Z,84.20
2019-05-26T19:55:43.803Z,84.40
2019-05-26T19:58:14.657Z,84.20
2019-05-26T20:00:45.633Z,84.70
2019-05-26T20:03:16.459Z,84.20
2019-05-26T20:05:47.451Z,84.00
2019-05-26T20:08:18.230Z,84.30
2019-05-26T20:10:48.989Z,83.90
2019-05-26T20:13:19.674Z,84.00
2019-05-26T20:15:50.670Z,84.10
2019-05-26T20:18:21.566Z,84.00
2019-05-26T20:20:52.526Z,84.00
2019-05-26T20:23:23.489Z,83.90
2019-05-26T20:25:54.429Z,83.80
2019-05-26T20:28:25.617Z,83.80
2019-05-26T20:30:56.469Z,84.10
2019-05-26T20:33:27.576Z,84.10
2019-05-26T20:35:58.373Z,84.90
2019-05-26T20:38:29.060Z,84.80
2019-05-26T20:41:00.017Z,84.80
2019-05-26T20:43:30.734Z,84.70
2019-05-26T20:46:01.650Z,84.80
2019-05-26T20:48:32.423Z,84.70
2019-05-26T20:51:03.288Z,84.70
2019-05-26T20:53:34.235Z,84.60
2019-05-26T20:56:05.188Z,84.60
2019-05-26T20:58:35.994Z,85.00
2019-05-26T21:01:07.044Z,84.90
2019-05-26T21:03:37.796Z,85.00
2019-05-26T21:06:08.708Z,84.90
2019-05-26T21:08:39.681Z,85.60
2019-05-26T21:11:10.627Z,85.80
2019-05-26T21:13:41.511Z,85.70
2019-05-26T21:16:12.315Z,85.60
2019-05-26T21:18:43.053Z,85.60
2019-05-26T21:21:13.959Z,86.20
2019-05-26T21:23:44.891Z,85.80
2019-05-26T21:26:15.822Z,85.70
2019-05-26T21:28:46.838Z,85.60
2019-05-26T21:31:17.692Z,85.70
2019-05-26T21:33:48.888Z,85.70
2019-05-26T21:36:19.678Z,85.80
2019-05-26T21:38:50.529Z,86.00
2019-05-26T21:41:21.219Z,86.10
2019-05-26T21:43:52.106Z,85.90
2019-05-26T21:46:22.974Z,85.70
2019-05-26T21:48:53.746Z,85.70
2019-05-26T21:51:24.545Z,86.00
2019-05-26T21:53:55.543Z,85.70
2019-05-26T21:56:26.383Z,85.70
2019-05-26T21:58:57.092Z,86.00
2019-05-26T22:01:28.086Z,86.00
2019-05-26T22:03:59.130Z,85.80
2019-05-26T22:06:29.886Z,85.60
2019-05-26T22:09:00.730Z,86.40
2019-05-26T22:11:31.741Z,85.60
2019-05-26T22:14:02.649Z,85.80
2019-05-26T22:16:33.434Z,86.30
2019-05-26T22:19:04.337Z,86.60
2019-05-26T22:21:35.183Z,86.40
2019-05-26T22:24:06.291Z,86.60
2019-05-26T22:26:37.210Z,86.40
2019-05-26T22:29:08.151Z,86.40
2019-05-26T22:31:38.922Z,86.40
2019-05-26T22:34:09.710Z,87.50
2019-05-26T22:36:40.453Z,87.00
